sensor_id;sensor_type;location;lat;lon;timestamp;P1;durP1;ratioP1;P2;durP2;ratioP2
15110;SDS011;7656;51.954;7.998;2024-02-28T00:01:52;19.83;;;9.27;;
15110;SDS011;7656;51.954;7.998;2024-02-28T00:06:15;19.80;;;10.23;;
15110;SDS011;7656;51.954;7.998;2024-02-28T00:10:37;17.70;;;8.80;;
15110;SDS011;7656;51.954;7.998;2024-02-28T00:14:58;20.43;;;10.17;;
15110;SDS011;7656;51.954;7.998;2024-02-28T00:19:19;21.37;;;10.10;;
15110;SDS011;7656;51.954;7.998;2024-02-28T00:23:40;17.67;;;9.20;;
15110;SDS011;7656;51.954;7.998;2024-02-28T00:28:02;18.67;;;9.27;;
15110;SDS011;7656;51.954;7.998;2024-02-28T00:32:23;18.73;;;9.33;;
15110;SDS011;7656;51.954;7.998;2024-02-28T00:36:44;19.73;;;9.67;;
15110;SDS011;7656;51.954;7.998;2024-02-28T00:41:05;19.27;;;9.97;;
15110;SDS011;7656;51.954;7.998;2024-02-28T00:45:27;22.70;;;9.73;;
15110;SDS011;7656;51.954;7.998;2024-02-28T00:49:48;27.17;;;10.50;;
15110;SDS011;7656;51.954;7.998;2024-02-28T00:54:09;17.17;;;8.27;;
15110;SDS011;7656;51.954;7.998;2024-02-28T00:58:30;19.07;;;9.67;;
15110;SDS011;7656;51.954;7.998;2024-02-28T01:02:51;21.47;;;8.27;;
15110;SDS011;7656;51.954;7.998;2024-02-28T01:07:13;23.10;;;9.93;;
15110;SDS011;7656;51.954;7.998;2024-02-28T01:11:34;34.40;;;10.53;;
15110;SDS011;7656;51.954;7.998;2024-02-28T01:15:55;45.10;;;12.03;;
15110;SDS011;7656;51.954;7.998;2024-02-28T01:20:16;87.37;;;15.50;;
15110;SDS011;7656;51.954;7.998;2024-02-28T01:24:37;49.17;;;12.23;;
15110;SDS011;7656;51.954;7.998;2024-02-28T01:28:58;34.30;;;10.80;;
15110;SDS011;7656;51.954;7.998;2024-02-28T01:33:19;23.77;;;10.97;;
15110;SDS011;7656;51.954;7.998;2024-02-28T01:37:40;27.67;;;10.67;;
15110;SDS011;7656;51.954;7.998;2024-02-28T01:42:02;56.30;;;13.17;;
15110;SDS011;7656;51.954;7.998;2024-02-28T01:46:24;27.43;;;9.93;;
15110;SDS011;7656;51.954;7.998;2024-02-28T01:50:47;30.13;;;10.43;;
15110;SDS011;7656;51.954;7.998;2024-02-28T01:55:08;27.43;;;9.90;;
15110;SDS011;7656;51.954;7.998;2024-02-28T01:59:30;25.37;;;8.97;;
15110;SDS011;7656;51.954;7.998;2024-02-28T02:03:53;19.20;;;9.10;;
15110;SDS011;7656;51.954;7.998;2024-02-28T02:08:14;19.83;;;8.80;;
15110;SDS011;7656;51.954;7.998;2024-02-28T02:12:36;29.33;;;8.53;;
15110;SDS011;7656;51.954;7.998;2024-02-28T02:16:57;27.63;;;9.77;;
15110;SDS011;7656;51.954;7.998;2024-02-28T02:21:19;26.77;;;9.50;;
15110;SDS011;7656;51.954;7.998;2024-02-28T02:25:47;22.97;;;9.00;;
15110;SDS011;7656;51.954;7.998;2024-02-28T02:30:09;26.77;;;10.20;;
15110;SDS011;7656;51.954;7.998;2024-02-28T02:34:31;22.83;;;9.30;;
15110;SDS011;7656;51.954;7.998;2024-02-28T02:38:52;47.27;;;11.10;;
15110;SDS011;7656;51.954;7.998;2024-02-28T02:43:13;41.80;;;10.53;;
15110;SDS011;7656;51.954;7.998;2024-02-28T02:47:34;14.57;;;7.30;;
15110;SDS011;7656;51.954;7.998;2024-02-28T02:51:56;51.53;;;9.70;;
15110;SDS011;7656;51.954;7.998;2024-02-28T02:56:17;24.40;;;9.30;;
15110;SDS011;7656;51.954;7.998;2024-02-28T03:00:38;24.77;;;7.60;;
15110;SDS011;7656;51.954;7.998;2024-02-28T03:04:59;40.07;;;8.43;;
15110;SDS011;7656;51.954;7.998;2024-02-28T03:09:20;51.97;;;9.67;;
15110;SDS011;7656;51.954;7.998;2024-02-28T03:13:41;15.80;;;8.03;;
15110;SDS011;7656;51.954;7.998;2024-02-28T03:18:02;33.03;;;9.00;;
15110;SDS011;7656;51.954;7.998;2024-02-28T03:22:24;29.97;;;8.97;;
15110;SDS011;7656;51.954;7.998;2024-02-28T03:26:45;25.30;;;7.57;;
15110;SDS011;7656;51.954;7.998;2024-02-28T03:31:07;22.90;;;8.33;;
15110;SDS011;7656;51.954;7.998;2024-02-28T03:35:28;19.10;;;7.53;;
15110;SDS011;7656;51.954;7.998;2024-02-28T03:39:49;18.73;;;7.43;;
15110;SDS011;7656;51.954;7.998;2024-02-28T03:44:10;19.00;;;7.97;;
15110;SDS011;7656;51.954;7.998;2024-02-28T03:48:31;17.30;;;7.17;;
15110;SDS011;7656;51.954;7.998;2024-02-28T03:52:52;18.63;;;7.50;;
15110;SDS011;7656;51.954;7.998;2024-02-28T03:57:13;17.73;;;8.37;;
15110;SDS011;7656;51.954;7.998;2024-02-28T04:01:34;24.90;;;8.57;;
15110;SDS011;7656;51.954;7.998;2024-02-28T04:05:56;33.90;;;8.40;;
15110;SDS011;7656;51.954;7.998;2024-02-28T04:10:17;31.37;;;9.37;;
15110;SDS011;7656;51.954;7.998;2024-02-28T04:14:38;29.90;;;9.70;;
15110;SDS011;7656;51.954;7.998;2024-02-28T04:18:59;36.50;;;10.10;;
15110;SDS011;7656;51.954;7.998;2024-02-28T04:23:20;39.93;;;11.77;;
15110;SDS011;7656;51.954;7.998;2024-02-28T04:27:41;20.93;;;9.53;;
15110;SDS011;7656;51.954;7.998;2024-02-28T04:32:04;35.23;;;10.73;;
15110;SDS011;7656;51.954;7.998;2024-02-28T04:36:25;37.97;;;10.13;;
15110;SDS011;7656;51.954;7.998;2024-02-28T04:40:46;26.90;;;10.40;;
15110;SDS011;7656;51.954;7.998;2024-02-28T04:45:07;33.90;;;10.10;;
15110;SDS011;7656;51.954;7.998;2024-02-28T04:49:29;35.33;;;10.33;;
15110;SDS011;7656;51.954;7.998;2024-02-28T04:53:51;22.07;;;9.27;;
15110;SDS011;7656;51.954;7.998;2024-02-28T04:58:12;39.93;;;10.63;;
15110;SDS011;7656;51.954;7.998;2024-02-28T05:02:33;35.97;;;11.27;;
15110;SDS011;7656;51.954;7.998;2024-02-28T05:06:54;32.20;;;8.90;;
15110;SDS011;7656;51.954;7.998;2024-02-28T05:11:15;38.23;;;10.10;;
15110;SDS011;7656;51.954;7.998;2024-02-28T05:15:36;37.63;;;9.97;;
15110;SDS011;7656;51.954;7.998;2024-02-28T05:19:57;27.13;;;10.50;;
15110;SDS011;7656;51.954;7.998;2024-02-28T05:24:18;33.73;;;10.93;;
15110;SDS011;7656;51.954;7.998;2024-02-28T05:28:39;30.50;;;11.20;;
15110;SDS011;7656;51.954;7.998;2024-02-28T05:33:00;31.73;;;11.87;;
15110;SDS011;7656;51.954;7.998;2024-02-28T05:37:21;37.47;;;10.83;;
15110;SDS011;7656;51.954;7.998;2024-02-28T05:41:42;31.30;;;12.13;;
15110;SDS011;7656;51.954;7.998;2024-02-28T05:46:03;29.50;;;11.63;;
15110;SDS011;7656;51.954;7.998;2024-02-28T05:50:24;22.20;;;11.27;;
15110;SDS011;7656;51.954;7.998;2024-02-28T05:54:46;57.23;;;14.23;;
15110;SDS011;7656;51.954;7.998;2024-02-28T05:59:08;43.80;;;12.90;;
15110;SDS011;7656;51.954;7.998;2024-02-28T06:03:29;42.60;;;12.43;;
15110;SDS011;7656;51.954;7.998;2024-02-28T06:07:50;31.47;;;11.97;;
15110;SDS011;7656;51.954;7.998;2024-02-28T06:12:11;41.30;;;14.40;;
15110;SDS011;7656;51.954;7.998;2024-02-28T06:16:32;30.27;;;11.83;;
15110;SDS011;7656;51.954;7.998;2024-02-28T06:20:54;37.03;;;12.47;;
15110;SDS011;7656;51.954;7.998;2024-02-28T06:25:16;45.03;;;12.63;;
15110;SDS011;7656;51.954;7.998;2024-02-28T06:29:42;27.17;;;11.53;;
15110;SDS011;7656;51.954;7.998;2024-02-28T06:34:03;56.67;;;15.17;;
15110;SDS011;7656;51.954;7.998;2024-02-28T06:38:24;39.17;;;13.07;;
15110;SDS011;7656;51.954;7.998;2024-02-28T06:42:46;26.07;;;12.27;;
15110;SDS011;7656;51.954;7.998;2024-02-28T06:47:07;38.23;;;13.03;;
15110;SDS011;7656;51.954;7.998;2024-02-28T06:51:29;37.40;;;12.47;;
15110;SDS011;7656;51.954;7.998;2024-02-28T06:55:50;39.00;;;13.90;;
15110;SDS011;7656;51.954;7.998;2024-02-28T07:00:11;30.73;;;13.63;;
15110;SDS011;7656;51.954;7.998;2024-02-28T07:04:35;30.43;;;13.57;;
15110;SDS011;7656;51.954;7.998;2024-02-28T07:08:56;32.70;;;12.87;;
15110;SDS011;7656;51.954;7.998;2024-02-28T07:13:17;33.77;;;14.90;;
15110;SDS011;7656;51.954;7.998;2024-02-28T07:17:38;36.57;;;15.10;;
15110;SDS011;7656;51.954;7.998;2024-02-28T07:21:59;30.77;;;12.40;;
15110;SDS011;7656;51.954;7.998;2024-02-28T07:26:20;45.07;;;17.07;;
15110;SDS011;7656;51.954;7.998;2024-02-28T07:30:43;42.90;;;15.90;;
15110;SDS011;7656;51.954;7.998;2024-02-28T07:35:06;35.90;;;14.27;;
15110;SDS011;7656;51.954;7.998;2024-02-28T07:39:28;34.47;;;16.80;;
15110;SDS011;7656;51.954;7.998;2024-02-28T07:43:49;35.97;;;15.73;;
15110;SDS011;7656;51.954;7.998;2024-02-28T07:48:10;35.90;;;14.33;;
15110;SDS011;7656;51.954;7.998;2024-02-28T07:52:31;43.93;;;16.30;;
15110;SDS011;7656;51.954;7.998;2024-02-28T07:56:55;40.10;;;17.00;;
15110;SDS011;7656;51.954;7.998;2024-02-28T08:01:16;42.23;;;17.53;;
15110;SDS011;7656;51.954;7.998;2024-02-28T08:05:37;42.93;;;17.07;;
15110;SDS011;7656;51.954;7.998;2024-02-28T08:10:03;42.63;;;16.47;;
15110;SDS011;7656;51.954;7.998;2024-02-28T08:14:27;42.10;;;15.93;;
15110;SDS011;7656;51.954;7.998;2024-02-28T08:18:49;44.80;;;18.37;;
15110;SDS011;7656;51.954;7.998;2024-02-28T08:23:10;41.67;;;17.77;;
15110;SDS011;7656;51.954;7.998;2024-02-28T08:27:31;44.10;;;17.60;;
15110;SDS011;7656;51.954;7.998;2024-02-28T08:31:54;50.50;;;17.83;;
15110;SDS011;7656;51.954;7.998;2024-02-28T08:36:15;43.37;;;18.37;;
15110;SDS011;7656;51.954;7.998;2024-02-28T08:40:36;55.27;;;20.13;;
15110;SDS011;7656;51.954;7.998;2024-02-28T08:44:57;44.57;;;18.60;;
15110;SDS011;7656;51.954;7.998;2024-02-28T08:49:20;44.13;;;18.27;;
15110;SDS011;7656;51.954;7.998;2024-02-28T08:53:41;56.43;;;19.77;;
15110;SDS011;7656;51.954;7.998;2024-02-28T08:58:02;42.23;;;17.07;;
15110;SDS011;7656;51.954;7.998;2024-02-28T09:02:24;53.80;;;19.33;;
15110;SDS011;7656;51.954;7.998;2024-02-28T09:06:45;42.57;;;15.33;;
15110;SDS011;7656;51.954;7.998;2024-02-28T09:11:06;45.40;;;17.13;;
15110;SDS011;7656;51.954;7.998;2024-02-28T09:15:27;52.97;;;18.23;;
15110;SDS011;7656;51.954;7.998;2024-02-28T09:19:48;42.33;;;16.77;;
15110;SDS011;7656;51.954;7.998;2024-02-28T09:24:10;45.87;;;16.87;;
15110;SDS011;7656;51.954;7.998;2024-02-28T09:28:31;47.37;;;17.30;;
15110;SDS011;7656;51.954;7.998;2024-02-28T09:32:53;43.80;;;16.57;;
15110;SDS011;7656;51.954;7.998;2024-02-28T09:37:14;48.27;;;18.20;;
15110;SDS011;7656;51.954;7.998;2024-02-28T09:41:37;42.20;;;16.63;;
15110;SDS011;7656;51.954;7.998;2024-02-28T09:46:04;46.10;;;17.23;;
15110;SDS011;7656;51.954;7.998;2024-02-28T09:50:27;49.77;;;16.40;;
15110;SDS011;7656;51.954;7.998;2024-02-28T09:54:48;39.83;;;17.00;;
15110;SDS011;7656;51.954;7.998;2024-02-28T09:59:09;44.20;;;16.87;;
15110;SDS011;7656;51.954;7.998;2024-02-28T10:03:31;48.17;;;16.97;;
15110;SDS011;7656;51.954;7.998;2024-02-28T10:07:53;42.47;;;16.93;;
15110;SDS011;7656;51.954;7.998;2024-02-28T10:12:15;43.37;;;18.07;;
15110;SDS011;7656;51.954;7.998;2024-02-28T10:16:36;38.33;;;17.10;;
15110;SDS011;7656;51.954;7.998;2024-02-28T10:20:57;44.10;;;18.23;;
15110;SDS011;7656;51.954;7.998;2024-02-28T10:25:18;40.90;;;17.73;;
15110;SDS011;7656;51.954;7.998;2024-02-28T10:29:39;44.70;;;17.20;;
15110;SDS011;7656;51.954;7.998;2024-02-28T10:34:02;41.47;;;17.40;;
15110;SDS011;7656;51.954;7.998;2024-02-28T10:38:25;41.40;;;17.30;;
15110;SDS011;7656;51.954;7.998;2024-02-28T10:42:47;37.27;;;16.30;;
15110;SDS011;7656;51.954;7.998;2024-02-28T10:47:09;45.50;;;17.00;;
15110;SDS011;7656;51.954;7.998;2024-02-28T10:51:34;44.70;;;19.17;;
15110;SDS011;7656;51.954;7.998;2024-02-28T10:56:00;43.40;;;18.23;;
15110;SDS011;7656;51.954;7.998;2024-02-28T11:00:24;42.13;;;18.13;;
15110;SDS011;7656;51.954;7.998;2024-02-28T11:04:45;44.00;;;18.80;;
15110;SDS011;7656;51.954;7.998;2024-02-28T11:09:06;42.60;;;17.87;;
15110;SDS011;7656;51.954;7.998;2024-02-28T11:13:33;46.03;;;18.47;;
15110;SDS011;7656;51.954;7.998;2024-02-28T11:17:55;47.00;;;19.70;;
15110;SDS011;7656;51.954;7.998;2024-02-28T11:22:29;46.13;;;17.73;;
15110;SDS011;7656;51.954;7.998;2024-02-28T11:26:53;48.97;;;19.17;;
15110;SDS011;7656;51.954;7.998;2024-02-28T11:31:14;46.40;;;18.57;;
15110;SDS011;7656;51.954;7.998;2024-02-28T11:35:35;47.43;;;20.73;;
15110;SDS011;7656;51.954;7.998;2024-02-28T11:39:56;48.03;;;19.17;;
15110;SDS011;7656;51.954;7.998;2024-02-28T11:44:18;46.70;;;18.37;;
15110;SDS011;7656;51.954;7.998;2024-02-28T11:48:39;40.97;;;17.77;;
15110;SDS011;7656;51.954;7.998;2024-02-28T11:53:01;51.43;;;19.80;;
15110;SDS011;7656;51.954;7.998;2024-02-28T11:57:22;46.60;;;17.87;;
15110;SDS011;7656;51.954;7.998;2024-02-28T12:01:43;39.77;;;17.80;;
15110;SDS011;7656;51.954;7.998;2024-02-28T12:06:04;52.07;;;20.47;;
15110;SDS011;7656;51.954;7.998;2024-02-28T12:10:25;40.37;;;18.57;;
15110;SDS011;7656;51.954;7.998;2024-02-28T12:14:47;44.23;;;18.17;;
15110;SDS011;7656;51.954;7.998;2024-02-28T12:19:10;42.93;;;16.63;;
15110;SDS011;7656;51.954;7.998;2024-02-28T12:23:32;40.57;;;17.13;;
15110;SDS011;7656;51.954;7.998;2024-02-28T12:27:53;40.70;;;18.40;;
15110;SDS011;7656;51.954;7.998;2024-02-28T12:32:14;43.03;;;17.67;;
15110;SDS011;7656;51.954;7.998;2024-02-28T12:36:37;36.90;;;17.80;;
15110;SDS011;7656;51.954;7.998;2024-02-28T12:40:58;32.47;;;15.80;;
15110;SDS011;7656;51.954;7.998;2024-02-28T12:45:19;39.73;;;17.90;;
15110;SDS011;7656;51.954;7.998;2024-02-28T12:49:40;36.83;;;16.77;;
15110;SDS011;7656;51.954;7.998;2024-02-28T12:54:01;40.33;;;17.17;;
15110;SDS011;7656;51.954;7.998;2024-02-28T12:58:23;40.03;;;18.20;;
15110;SDS011;7656;51.954;7.998;2024-02-28T13:02:44;35.97;;;15.80;;
15110;SDS011;7656;51.954;7.998;2024-02-28T13:07:06;44.10;;;18.87;;
15110;SDS011;7656;51.954;7.998;2024-02-28T13:11:27;35.90;;;17.83;;
15110;SDS011;7656;51.954;7.998;2024-02-28T13:15:48;39.83;;;18.73;;
15110;SDS011;7656;51.954;7.998;2024-02-28T13:20:09;38.20;;;19.13;;
15110;SDS011;7656;51.954;7.998;2024-02-28T13:24:31;34.97;;;17.53;;
15110;SDS011;7656;51.954;7.998;2024-02-28T13:28:52;37.83;;;19.67;;
15110;SDS011;7656;51.954;7.998;2024-02-28T13:33:13;31.60;;;16.17;;
15110;SDS011;7656;51.954;7.998;2024-02-28T13:37:35;35.87;;;17.23;;
15110;SDS011;7656;51.954;7.998;2024-02-28T13:41:56;32.10;;;18.27;;
15110;SDS011;7656;51.954;7.998;2024-02-28T13:46:17;35.83;;;17.83;;
15110;SDS011;7656;51.954;7.998;2024-02-28T13:50:39;33.70;;;17.23;;
15110;SDS011;7656;51.954;7.998;2024-02-28T13:55:01;34.40;;;17.63;;
15110;SDS011;7656;51.954;7.998;2024-02-28T13:59:23;33.53;;;17.07;;
15110;SDS011;7656;51.954;7.998;2024-02-28T14:03:44;37.17;;;18.33;;
15110;SDS011;7656;51.954;7.998;2024-02-28T14:08:06;35.27;;;19.50;;
15110;SDS011;7656;51.954;7.998;2024-02-28T14:12:28;35.53;;;19.17;;
15110;SDS011;7656;51.954;7.998;2024-02-28T14:16:50;36.37;;;18.83;;
15110;SDS011;7656;51.954;7.998;2024-02-28T14:21:11;31.57;;;17.63;;
15110;SDS011;7656;51.954;7.998;2024-02-28T14:25:32;33.80;;;16.83;;
15110;SDS011;7656;51.954;7.998;2024-02-28T14:29:53;34.50;;;16.93;;
15110;SDS011;7656;51.954;7.998;2024-02-28T14:34:14;33.90;;;16.13;;
15110;SDS011;7656;51.954;7.998;2024-02-28T14:38:35;31.47;;;16.63;;
15110;SDS011;7656;51.954;7.998;2024-02-28T14:42:56;31.23;;;17.47;;
15110;SDS011;7656;51.954;7.998;2024-02-28T14:47:18;29.40;;;16.83;;
15110;SDS011;7656;51.954;7.998;2024-02-28T14:51:40;31.10;;;16.60;;
15110;SDS011;7656;51.954;7.998;2024-02-28T14:56:01;32.90;;;15.87;;
15110;SDS011;7656;51.954;7.998;2024-02-28T15:00:24;32.97;;;18.77;;
15110;SDS011;7656;51.954;7.998;2024-02-28T15:04:45;30.27;;;17.10;;
15110;SDS011;7656;51.954;7.998;2024-02-28T15:09:07;35.73;;;17.17;;
15110;SDS011;7656;51.954;7.998;2024-02-28T15:13:29;31.00;;;16.90;;
15110;SDS011;7656;51.954;7.998;2024-02-28T15:17:50;34.07;;;17.73;;
15110;SDS011;7656;51.954;7.998;2024-02-28T15:22:11;33.40;;;16.93;;
15110;SDS011;7656;51.954;7.998;2024-02-28T15:26:32;33.40;;;17.77;;
15110;SDS011;7656;51.954;7.998;2024-02-28T15:30:53;30.87;;;15.60;;
15110;SDS011;7656;51.954;7.998;2024-02-28T15:35:15;29.50;;;15.27;;
15110;SDS011;7656;51.954;7.998;2024-02-28T15:39:36;30.27;;;15.23;;
15110;SDS011;7656;51.954;7.998;2024-02-28T15:43:57;36.57;;;15.97;;
15110;SDS011;7656;51.954;7.998;2024-02-28T15:48:19;34.80;;;15.90;;
15110;SDS011;7656;51.954;7.998;2024-02-28T15:52:40;30.83;;;16.10;;
15110;SDS011;7656;51.954;7.998;2024-02-28T15:57:01;31.43;;;15.30;;
15110;SDS011;7656;51.954;7.998;2024-02-28T16:01:22;33.13;;;16.47;;
15110;SDS011;7656;51.954;7.998;2024-02-28T16:05:43;32.50;;;15.87;;
15110;SDS011;7656;51.954;7.998;2024-02-28T16:10:05;32.27;;;15.03;;
15110;SDS011;7656;51.954;7.998;2024-02-28T16:14:26;34.10;;;15.00;;
15110;SDS011;7656;51.954;7.998;2024-02-28T16:18:47;32.37;;;15.03;;
15110;SDS011;7656;51.954;7.998;2024-02-28T16:23:08;36.20;;;15.50;;
15110;SDS011;7656;51.954;7.998;2024-02-28T16:27:31;28.13;;;14.07;;
15110;SDS011;7656;51.954;7.998;2024-02-28T16:31:53;33.07;;;14.80;;
15110;SDS011;7656;51.954;7.998;2024-02-28T16:36:14;30.33;;;15.47;;
15110;SDS011;7656;51.954;7.998;2024-02-28T16:40:36;34.73;;;14.83;;
15110;SDS011;7656;51.954;7.998;2024-02-28T16:44:57;36.43;;;15.47;;
15110;SDS011;7656;51.954;7.998;2024-02-28T16:49:18;31.67;;;14.77;;
15110;SDS011;7656;51.954;7.998;2024-02-28T16:53:39;29.53;;;15.07;;
15110;SDS011;7656;51.954;7.998;2024-02-28T16:58:01;29.07;;;16.20;;
15110;SDS011;7656;51.954;7.998;2024-02-28T17:02:24;28.50;;;15.17;;
15110;SDS011;7656;51.954;7.998;2024-02-28T17:06:45;34.63;;;16.73;;
15110;SDS011;7656;51.954;7.998;2024-02-28T17:11:07;29.97;;;15.90;;
15110;SDS011;7656;51.954;7.998;2024-02-28T17:15:30;30.00;;;14.00;;
15110;SDS011;7656;51.954;7.998;2024-02-28T17:19:52;34.00;;;15.00;;
15110;SDS011;7656;51.954;7.998;2024-02-28T17:24:13;31.00;;;14.17;;
15110;SDS011;7656;51.954;7.998;2024-02-28T17:28:34;32.63;;;17.53;;
15110;SDS011;7656;51.954;7.998;2024-02-28T17:32:56;33.83;;;15.80;;
15110;SDS011;7656;51.954;7.998;2024-02-28T17:37:17;37.70;;;15.97;;
15110;SDS011;7656;51.954;7.998;2024-02-28T17:41:40;30.97;;;16.20;;
15110;SDS011;7656;51.954;7.998;2024-02-28T17:46:02;32.60;;;16.00;;
15110;SDS011;7656;51.954;7.998;2024-02-28T17:50:23;31.70;;;16.37;;
15110;SDS011;7656;51.954;7.998;2024-02-28T17:54:45;34.37;;;13.97;;
15110;SDS011;7656;51.954;7.998;2024-02-28T17:59:06;32.90;;;16.23;;
15110;SDS011;7656;51.954;7.998;2024-02-28T18:03:27;34.00;;;14.17;;
15110;SDS011;7656;51.954;7.998;2024-02-28T18:07:49;29.50;;;14.97;;
15110;SDS011;7656;51.954;7.998;2024-02-28T18:12:13;30.27;;;15.10;;
15110;SDS011;7656;51.954;7.998;2024-02-28T18:16:34;32.03;;;15.40;;
15110;SDS011;7656;51.954;7.998;2024-02-28T18:20:58;27.13;;;14.20;;
15110;SDS011;7656;51.954;7.998;2024-02-28T18:25:20;35.10;;;15.00;;
15110;SDS011;7656;51.954;7.998;2024-02-28T18:29:42;32.33;;;14.87;;
15110;SDS011;7656;51.954;7.998;2024-02-28T18:34:04;30.83;;;16.03;;
15110;SDS011;7656;51.954;7.998;2024-02-28T18:38:25;31.07;;;15.33;;
15110;SDS011;7656;51.954;7.998;2024-02-28T18:42:46;33.33;;;15.73;;
15110;SDS011;7656;51.954;7.998;2024-02-28T18:47:08;30.93;;;15.40;;
15110;SDS011;7656;51.954;7.998;2024-02-28T18:51:29;27.77;;;15.60;;
15110;SDS011;7656;51.954;7.998;2024-02-28T18:55:50;36.13;;;16.40;;
15110;SDS011;7656;51.954;7.998;2024-02-28T19:00:12;30.40;;;15.53;;
15110;SDS011;7656;51.954;7.998;2024-02-28T19:04:34;33.17;;;15.90;;
15110;SDS011;7656;51.954;7.998;2024-02-28T19:08:58;32.53;;;15.83;;
15110;SDS011;7656;51.954;7.998;2024-02-28T19:13:19;32.03;;;14.83;;
15110;SDS011;7656;51.954;7.998;2024-02-28T19:17:40;28.47;;;14.87;;
15110;SDS011;7656;51.954;7.998;2024-02-28T19:22:02;34.47;;;15.83;;
15110;SDS011;7656;51.954;7.998;2024-02-28T19:26:23;32.30;;;16.37;;
15110;SDS011;7656;51.954;7.998;2024-02-28T19:30:45;30.33;;;15.40;;
15110;SDS011;7656;51.954;7.998;2024-02-28T19:35:06;35.40;;;15.50;;
15110;SDS011;7656;51.954;7.998;2024-02-28T19:39:28;31.10;;;14.83;;
15110;SDS011;7656;51.954;7.998;2024-02-28T19:43:51;29.63;;;15.43;;
15110;SDS011;7656;51.954;7.998;2024-02-28T19:48:12;28.70;;;15.50;;
15110;SDS011;7656;51.954;7.998;2024-02-28T19:52:35;28.67;;;14.23;;
15110;SDS011;7656;51.954;7.998;2024-02-28T19:56:58;33.87;;;18.13;;
15110;SDS011;7656;51.954;7.998;2024-02-28T20:01:21;30.90;;;15.33;;
15110;SDS011;7656;51.954;7.998;2024-02-28T20:05:42;33.00;;;15.77;;
15110;SDS011;7656;51.954;7.998;2024-02-28T20:10:04;32.03;;;15.40;;
15110;SDS011;7656;51.954;7.998;2024-02-28T20:14:27;32.67;;;15.43;;
15110;SDS011;7656;51.954;7.998;2024-02-28T20:18:49;31.17;;;14.87;;
15110;SDS011;7656;51.954;7.998;2024-02-28T20:23:11;27.77;;;14.23;;
15110;SDS011;7656;51.954;7.998;2024-02-28T20:27:33;29.83;;;15.30;;
15110;SDS011;7656;51.954;7.998;2024-02-28T20:31:54;31.33;;;14.53;;
15110;SDS011;7656;51.954;7.998;2024-02-28T20:36:16;28.87;;;13.73;;
15110;SDS011;7656;51.954;7.998;2024-02-28T20:40:38;28.40;;;13.97;;
15110;SDS011;7656;51.954;7.998;2024-02-28T20:44:59;25.13;;;13.03;;
15110;SDS011;7656;51.954;7.998;2024-02-28T20:49:21;26.27;;;13.60;;
15110;SDS011;7656;51.954;7.998;2024-02-28T20:53:44;32.80;;;14.67;;
15110;SDS011;7656;51.954;7.998;2024-02-28T20:58:13;27.90;;;13.70;;
15110;SDS011;7656;51.954;7.998;2024-02-28T21:02:34;30.67;;;13.37;;
15110;SDS011;7656;51.954;7.998;2024-02-28T21:06:56;26.57;;;14.43;;
15110;SDS011;7656;51.954;7.998;2024-02-28T21:11:17;25.57;;;12.77;;
15110;SDS011;7656;51.954;7.998;2024-02-28T21:15:38;28.93;;;13.60;;
15110;SDS011;7656;51.954;7.998;2024-02-28T21:19:59;33.53;;;16.30;;
15110;SDS011;7656;51.954;7.998;2024-02-28T21:24:20;27.90;;;13.33;;
15110;SDS011;7656;51.954;7.998;2024-02-28T21:28:41;28.10;;;13.53;;
15110;SDS011;7656;51.954;7.998;2024-02-28T21:33:02;27.00;;;13.67;;
15110;SDS011;7656;51.954;7.998;2024-02-28T21:37:24;24.90;;;14.30;;
15110;SDS011;7656;51.954;7.998;2024-02-28T21:41:45;26.27;;;13.33;;
15110;SDS011;7656;51.954;7.998;2024-02-28T21:46:09;33.33;;;14.30;;
15110;SDS011;7656;51.954;7.998;2024-02-28T21:50:30;30.80;;;14.33;;
15110;SDS011;7656;51.954;7.998;2024-02-28T21:54:51;24.70;;;13.33;;
15110;SDS011;7656;51.954;7.998;2024-02-28T21:59:13;27.60;;;12.93;;
15110;SDS011;7656;51.954;7.998;2024-02-28T22:03:34;28.17;;;13.50;;
15110;SDS011;7656;51.954;7.998;2024-02-28T22:07:55;24.07;;;12.83;;
15110;SDS011;7656;51.954;7.998;2024-02-28T22:12:17;24.50;;;14.50;;
15110;SDS011;7656;51.954;7.998;2024-02-28T22:16:38;23.27;;;13.13;;
15110;SDS011;7656;51.954;7.998;2024-02-28T22:20:59;25.37;;;13.47;;
15110;SDS011;7656;51.954;7.998;2024-02-28T22:25:20;23.63;;;13.40;;
15110;SDS011;7656;51.954;7.998;2024-02-28T22:29:41;24.77;;;12.23;;
15110;SDS011;7656;51.954;7.998;2024-02-28T22:34:02;24.90;;;12.20;;
15110;SDS011;7656;51.954;7.998;2024-02-28T22:38:24;23.27;;;11.87;;
15110;SDS011;7656;51.954;7.998;2024-02-28T22:42:45;25.10;;;12.20;;
15110;SDS011;7656;51.954;7.998;2024-02-28T22:47:06;19.93;;;12.20;;
15110;SDS011;7656;51.954;7.998;2024-02-28T22:51:28;23.87;;;11.23;;
15110;SDS011;7656;51.954;7.998;2024-02-28T22:55:50;25.23;;;12.33;;
15110;SDS011;7656;51.954;7.998;2024-02-28T23:00:12;19.80;;;11.40;;
15110;SDS011;7656;51.954;7.998;2024-02-28T23:04:52;24.07;;;13.03;;
15110;SDS011;7656;51.954;7.998;2024-02-28T23:09:13;19.70;;;11.57;;
15110;SDS011;7656;51.954;7.998;2024-02-28T23:13:34;22.87;;;11.73;;
15110;SDS011;7656;51.954;7.998;2024-02-28T23:17:56;22.73;;;10.83;;
15110;SDS011;7656;51.954;7.998;2024-02-28T23:22:17;21.33;;;10.97;;
15110;SDS011;7656;51.954;7.998;2024-02-28T23:26:38;19.80;;;11.27;;
15110;SDS011;7656;51.954;7.998;2024-02-28T23:30:59;22.23;;;11.00;;
15110;SDS011;7656;51.954;7.998;2024-02-28T23:35:20;20.70;;;11.47;;
15110;SDS011;7656;51.954;7.998;2024-02-28T23:39:41;17.70;;;10.17;;
15110;SDS011;7656;51.954;7.998;2024-02-28T23:44:03;19.93;;;9.63;;
15110;SDS011;7656;51.954;7.998;2024-02-28T23:48:24;21.27;;;10.90;;
15110;SDS011;7656;51.954;7.998;2024-02-28T23:52:45;22.07;;;11.13;;
15110;SDS011;7656;51.954;7.998;2024-02-28T23:57:06;18.97;;;10.07;;
